sensor_id;sensor_type;location;lat;lon;timestamp;P1;durP1;ratioP1;P2;durP2;ratioP2
31298;SDS011;17927;52.350;13.402;2023-04-15T00:01:00;17.15;;;14.50;;
31298;SDS011;17927;52.350;13.402;2023-04-15T00:03:26;16.55;;;14.77;;
31298;SDS011;17927;52.350;13.402;2023-04-15T00:05:52;17.85;;;14.48;;
31298;SDS011;17927;52.350;13.402;2023-04-15T00:08:17;17.73;;;15.02;;
31298;SDS011;17927;52.350;13.402;2023-04-15T00:10:43;16.33;;;14.60;;
31298;SDS011;17927;52.350;13.402;2023-04-15T00:13:10;17.00;;;14.32;;
31298;SDS011;17927;52.350;13.402;2023-04-15T00:15:35;17.20;;;15.32;;
31298;SDS011;17927;52.350;13.402;2023-04-15T00:18:01;17.48;;;15.02;;
31298;SDS011;17927;52.350;13.402;2023-04-15T00:20:26;17.27;;;14.68;;
31298;SDS011;17927;52.350;13.402;2023-04-15T00:22:52;18.30;;;15.77;;
31298;SDS011;17927;52.350;13.402;2023-04-15T00:25:17;17.20;;;14.73;;
31298;SDS011;17927;52.350;13.402;2023-04-15T00:27:42;18.60;;;15.48;;
31298;SDS011;17927;52.350;13.402;2023-04-15T00:30:08;20.45;;;16.45;;
31298;SDS011;17927;52.350;13.402;2023-04-15T00:32:33;18.58;;;16.08;;
31298;SDS011;17927;52.350;13.402;2023-04-15T00:34:58;19.13;;;16.08;;
31298;SDS011;17927;52.350;13.402;2023-04-15T00:37:24;18.70;;;16.33;;
31298;SDS011;17927;52.350;13.402;2023-04-15T00:39:49;18.17;;;16.27;;
31298;SDS011;17927;52.350;13.402;2023-04-15T00:42:15;19.80;;;16.05;;
31298;SDS011;17927;52.350;13.402;2023-04-15T00:44:40;20.15;;;16.63;;
31298;SDS011;17927;52.350;13.402;2023-04-15T00:47:06;27.27;;;17.73;;
31298;SDS011;17927;52.350;13.402;2023-04-15T00:49:32;21.00;;;17.15;;
31298;SDS011;17927;52.350;13.402;2023-04-15T00:51:58;20.75;;;16.85;;
31298;SDS011;17927;52.350;13.402;2023-04-15T00:54:23;25.27;;;18.08;;
31298;SDS011;17927;52.350;13.402;2023-04-15T00:56:49;23.17;;;17.90;;
31298;SDS011;17927;52.350;13.402;2023-04-15T00:59:14;22.88;;;18.60;;
31298;SDS011;17927;52.350;13.402;2023-04-15T01:01:41;22.48;;;18.50;;
31298;SDS011;17927;52.350;13.402;2023-04-15T01:04:08;25.50;;;18.73;;
31298;SDS011;17927;52.350;13.402;2023-04-15T01:06:35;20.52;;;17.17;;
31298;SDS011;17927;52.350;13.402;2023-04-15T01:09:00;24.35;;;18.05;;
31298;SDS011;17927;52.350;13.402;2023-04-15T01:11:26;22.75;;;18.52;;
31298;SDS011;17927;52.350;13.402;2023-04-15T01:13:51;25.77;;;19.60;;
31298;SDS011;17927;52.350;13.402;2023-04-15T01:16:18;21.92;;;17.98;;
31298;SDS011;17927;52.350;13.402;2023-04-15T01:18:44;23.45;;;18.30;;
31298;SDS011;17927;52.350;13.402;2023-04-15T01:21:10;24.52;;;18.67;;
31298;SDS011;17927;52.350;13.402;2023-04-15T01:23:36;26.00;;;19.73;;
31298;SDS011;17927;52.350;13.402;2023-04-15T01:26:02;24.13;;;18.42;;
31298;SDS011;17927;52.350;13.402;2023-04-15T01:28:28;23.33;;;18.92;;
31298;SDS011;17927;52.350;13.402;2023-04-15T01:31:12;25.52;;;18.55;;
31298;SDS011;17927;52.350;13.402;2023-04-15T01:33:39;24.52;;;19.08;;
31298;SDS011;17927;52.350;13.402;2023-04-15T01:36:06;28.10;;;20.05;;
31298;SDS011;17927;52.350;13.402;2023-04-15T01:38:32;26.73;;;19.95;;
31298;SDS011;17927;52.350;13.402;2023-04-15T01:40:58;28.48;;;20.23;;
31298;SDS011;17927;52.350;13.402;2023-04-15T01:43:24;26.75;;;19.02;;
31298;SDS011;17927;52.350;13.402;2023-04-15T01:45:49;27.00;;;20.63;;
31298;SDS011;17927;52.350;13.402;2023-04-15T01:48:15;25.38;;;18.80;;
31298;SDS011;17927;52.350;13.402;2023-04-15T01:50:40;23.90;;;18.08;;
31298;SDS011;17927;52.350;13.402;2023-04-15T01:53:06;27.33;;;20.55;;
31298;SDS011;17927;52.350;13.402;2023-04-15T01:55:32;26.10;;;19.67;;
31298;SDS011;17927;52.350;13.402;2023-04-15T01:57:57;25.73;;;19.52;;
31298;SDS011;17927;52.350;13.402;2023-04-15T02:00:23;26.55;;;20.05;;
31298;SDS011;17927;52.350;13.402;2023-04-15T02:02:48;32.72;;;20.50;;
31298;SDS011;17927;52.350;13.402;2023-04-15T02:05:14;31.70;;;20.42;;
31298;SDS011;17927;52.350;13.402;2023-04-15T02:07:40;28.23;;;21.02;;
31298;SDS011;17927;52.350;13.402;2023-04-15T02:10:07;26.48;;;20.52;;
31298;SDS011;17927;52.350;13.402;2023-04-15T02:12:33;28.85;;;20.85;;
31298;SDS011;17927;52.350;13.402;2023-04-15T02:14:58;27.35;;;19.98;;
31298;SDS011;17927;52.350;13.402;2023-04-15T02:17:23;30.23;;;20.80;;
31298;SDS011;17927;52.350;13.402;2023-04-15T02:19:49;28.40;;;20.27;;
31298;SDS011;17927;52.350;13.402;2023-04-15T02:22:14;34.80;;;22.08;;
31298;SDS011;17927;52.350;13.402;2023-04-15T02:24:42;27.65;;;19.48;;
31298;SDS011;17927;52.350;13.402;2023-04-15T02:27:07;28.17;;;20.50;;
31298;SDS011;17927;52.350;13.402;2023-04-15T02:29:33;27.77;;;20.35;;
31298;SDS011;17927;52.350;13.402;2023-04-15T02:31:58;27.92;;;19.88;;
31298;SDS011;17927;52.350;13.402;2023-04-15T02:34:23;27.08;;;19.73;;
31298;SDS011;17927;52.350;13.402;2023-04-15T02:36:48;32.28;;;22.42;;
31298;SDS011;17927;52.350;13.402;2023-04-15T02:39:18;32.22;;;21.85;;
31298;SDS011;17927;52.350;13.402;2023-04-15T02:41:44;31.15;;;21.40;;
31298;SDS011;17927;52.350;13.402;2023-04-15T02:44:11;30.15;;;21.60;;
31298;SDS011;17927;52.350;13.402;2023-04-15T02:46:36;36.15;;;20.73;;
31298;SDS011;17927;52.350;13.402;2023-04-15T02:49:02;31.02;;;20.98;;
31298;SDS011;17927;52.350;13.402;2023-04-15T02:51:29;31.73;;;21.45;;
31298;SDS011;17927;52.350;13.402;2023-04-15T02:53:55;29.63;;;21.20;;
31298;SDS011;17927;52.350;13.402;2023-04-15T02:56:20;32.30;;;20.75;;
31298;SDS011;17927;52.350;13.402;2023-04-15T02:58:47;30.50;;;20.98;;
31298;SDS011;17927;52.350;13.402;2023-04-15T03:01:14;28.70;;;21.05;;
31298;SDS011;17927;52.350;13.402;2023-04-15T03:03:39;30.98;;;21.52;;
31298;SDS011;17927;52.350;13.402;2023-04-15T03:06:05;29.98;;;20.13;;
31298;SDS011;17927;52.350;13.402;2023-04-15T03:08:30;35.25;;;20.95;;
31298;SDS011;17927;52.350;13.402;2023-04-15T03:10:57;28.20;;;20.10;;
31298;SDS011;17927;52.350;13.402;2023-04-15T03:13:24;30.83;;;19.20;;
31298;SDS011;17927;52.350;13.402;2023-04-15T03:15:49;28.95;;;20.33;;
31298;SDS011;17927;52.350;13.402;2023-04-15T03:18:15;28.27;;;18.92;;
31298;SDS011;17927;52.350;13.402;2023-04-15T03:20:40;30.58;;;20.33;;
31298;SDS011;17927;52.350;13.402;2023-04-15T03:23:05;28.33;;;20.35;;
31298;SDS011;17927;52.350;13.402;2023-04-15T03:25:31;30.33;;;19.98;;
31298;SDS011;17927;52.350;13.402;2023-04-15T03:27:56;28.75;;;19.40;;
31298;SDS011;17927;52.350;13.402;2023-04-15T03:30:22;27.50;;;20.00;;
31298;SDS011;17927;52.350;13.402;2023-04-15T03:32:47;27.80;;;20.35;;
31298;SDS011;17927;52.350;13.402;2023-04-15T03:35:12;26.95;;;20.48;;
31298;SDS011;17927;52.350;13.402;2023-04-15T03:37:37;27.50;;;19.77;;
31298;SDS011;17927;52.350;13.402;2023-04-15T03:40:03;29.35;;;19.88;;
31298;SDS011;17927;52.350;13.402;2023-04-15T03:42:28;28.35;;;19.90;;
31298;SDS011;17927;52.350;13.402;2023-04-15T03:44:53;28.70;;;19.30;;
31298;SDS011;17927;52.350;13.402;2023-04-15T03:47:19;26.35;;;19.23;;
31298;SDS011;17927;52.350;13.402;2023-04-15T03:49:44;27.02;;;19.17;;
31298;SDS011;17927;52.350;13.402;2023-04-15T03:52:09;24.77;;;17.90;;
31298;SDS011;17927;52.350;13.402;2023-04-15T03:54:34;26.35;;;18.98;;
31298;SDS011;17927;52.350;13.402;2023-04-15T03:57:00;23.42;;;17.58;;
31298;SDS011;17927;52.350;13.402;2023-04-15T03:59:25;24.77;;;18.17;;
31298;SDS011;17927;52.350;13.402;2023-04-15T04:01:50;29.35;;;17.83;;
31298;SDS011;17927;52.350;13.402;2023-04-15T04:04:16;34.30;;;22.80;;
31298;SDS011;17927;52.350;13.402;2023-04-15T04:06:41;35.30;;;25.95;;
31298;SDS011;17927;52.350;13.402;2023-04-15T04:09:06;34.83;;;24.77;;
31298;SDS011;17927;52.350;13.402;2023-04-15T04:11:31;31.58;;;22.50;;
31298;SDS011;17927;52.350;13.402;2023-04-15T04:13:57;29.17;;;21.40;;
31298;SDS011;17927;52.350;13.402;2023-04-15T04:16:22;30.80;;;22.20;;
31298;SDS011;17927;52.350;13.402;2023-04-15T04:18:47;33.47;;;22.55;;
31298;SDS011;17927;52.350;13.402;2023-04-15T04:21:13;27.92;;;21.30;;
31298;SDS011;17927;52.350;13.402;2023-04-15T04:23:38;30.20;;;21.02;;
31298;SDS011;17927;52.350;13.402;2023-04-15T04:26:03;33.00;;;20.92;;
31298;SDS011;17927;52.350;13.402;2023-04-15T04:28:28;30.65;;;21.98;;
31298;SDS011;17927;52.350;13.402;2023-04-15T04:30:54;28.83;;;18.77;;
31298;SDS011;17927;52.350;13.402;2023-04-15T04:33:19;23.95;;;17.50;;
31298;SDS011;17927;52.350;13.402;2023-04-15T04:35:45;24.80;;;17.35;;
31298;SDS011;17927;52.350;13.402;2023-04-15T04:38:10;25.65;;;17.25;;
31298;SDS011;17927;52.350;13.402;2023-04-15T04:40:36;23.48;;;16.98;;
31298;SDS011;17927;52.350;13.402;2023-04-15T04:43:01;23.13;;;16.98;;
31298;SDS011;17927;52.350;13.402;2023-04-15T04:45:26;25.13;;;18.33;;
31298;SDS011;17927;52.350;13.402;2023-04-15T04:47:51;23.45;;;17.58;;
31298;SDS011;17927;52.350;13.402;2023-04-15T04:50:17;21.77;;;17.35;;
31298;SDS011;17927;52.350;13.402;2023-04-15T04:52:42;27.08;;;17.55;;
31298;SDS011;17927;52.350;13.402;2023-04-15T04:55:07;22.23;;;16.05;;
31298;SDS011;17927;52.350;13.402;2023-04-15T04:57:33;21.80;;;16.33;;
31298;SDS011;17927;52.350;13.402;2023-04-15T05:00:00;23.75;;;16.55;;
31298;SDS011;17927;52.350;13.402;2023-04-15T05:02:26;23.95;;;16.33;;
31298;SDS011;17927;52.350;13.402;2023-04-15T05:04:51;24.42;;;16.55;;
31298;SDS011;17927;52.350;13.402;2023-04-15T05:07:18;22.20;;;15.65;;
31298;SDS011;17927;52.350;13.402;2023-04-15T05:09:44;20.83;;;15.32;;
31298;SDS011;17927;52.350;13.402;2023-04-15T05:12:10;22.08;;;16.00;;
31298;SDS011;17927;52.350;13.402;2023-04-15T05:14:38;20.85;;;15.05;;
31298;SDS011;17927;52.350;13.402;2023-04-15T05:17:04;21.17;;;15.65;;
31298;SDS011;17927;52.350;13.402;2023-04-15T05:19:29;23.10;;;15.90;;
31298;SDS011;17927;52.350;13.402;2023-04-15T05:21:55;20.08;;;14.63;;
31298;SDS011;17927;52.350;13.402;2023-04-15T05:24:20;20.55;;;15.02;;
31298;SDS011;17927;52.350;13.402;2023-04-15T05:26:46;20.77;;;15.00;;
31298;SDS011;17927;52.350;13.402;2023-04-15T05:29:11;20.38;;;15.27;;
31298;SDS011;17927;52.350;13.402;2023-04-15T05:31:36;19.80;;;14.50;;
31298;SDS011;17927;52.350;13.402;2023-04-15T05:34:02;18.10;;;13.82;;
31298;SDS011;17927;52.350;13.402;2023-04-15T05:36:27;23.88;;;14.95;;
31298;SDS011;17927;52.350;13.402;2023-04-15T05:38:52;19.17;;;14.45;;
31298;SDS011;17927;52.350;13.402;2023-04-15T05:41:18;16.33;;;13.68;;
31298;SDS011;17927;52.350;13.402;2023-04-15T05:43:43;14.98;;;12.90;;
31298;SDS011;17927;52.350;13.402;2023-04-15T05:46:08;17.27;;;13.25;;
31298;SDS011;17927;52.350;13.402;2023-04-15T05:48:34;17.38;;;12.77;;
31298;SDS011;17927;52.350;13.402;2023-04-15T05:50:59;16.17;;;13.00;;
31298;SDS011;17927;52.350;13.402;2023-04-15T05:53:25;13.10;;;11.77;;
31298;SDS011;17927;52.350;13.402;2023-04-15T05:55:50;15.20;;;12.32;;
31298;SDS011;17927;52.350;13.402;2023-04-15T05:58:16;13.07;;;11.60;;
31298;SDS011;17927;52.350;13.402;2023-04-15T06:00:41;12.02;;;10.73;;
31298;SDS011;17927;52.350;13.402;2023-04-15T06:03:06;17.20;;;10.85;;
31298;SDS011;17927;52.350;13.402;2023-04-15T06:05:31;12.75;;;11.32;;
31298;SDS011;17927;52.350;13.402;2023-04-15T06:07:57;15.15;;;11.45;;
31298;SDS011;17927;52.350;13.402;2023-04-15T06:10:22;13.30;;;10.73;;
31298;SDS011;17927;52.350;13.402;2023-04-15T06:12:47;12.98;;;10.18;;
31298;SDS011;17927;52.350;13.402;2023-04-15T06:15:13;15.52;;;11.38;;
31298;SDS011;17927;52.350;13.402;2023-04-15T06:17:38;12.40;;;10.55;;
31298;SDS011;17927;52.350;13.402;2023-04-15T06:20:04;13.30;;;10.35;;
31298;SDS011;17927;52.350;13.402;2023-04-15T06:22:29;12.35;;;10.30;;
31298;SDS011;17927;52.350;13.402;2023-04-15T06:24:55;12.60;;;9.55;;
31298;SDS011;17927;52.350;13.402;2023-04-15T06:27:20;13.25;;;10.65;;
31298;SDS011;17927;52.350;13.402;2023-04-15T06:29:46;11.27;;;9.48;;
31298;SDS011;17927;52.350;13.402;2023-04-15T06:32:12;9.88;;;8.88;;
31298;SDS011;17927;52.350;13.402;2023-04-15T06:34:37;10.05;;;9.05;;
31298;SDS011;17927;52.350;13.402;2023-04-15T06:37:02;15.50;;;9.48;;
31298;SDS011;17927;52.350;13.402;2023-04-15T06:39:28;13.77;;;10.07;;
31298;SDS011;17927;52.350;13.402;2023-04-15T06:41:53;10.40;;;9.07;;
31298;SDS011;17927;52.350;13.402;2023-04-15T06:44:18;10.95;;;9.85;;
31298;SDS011;17927;52.350;13.402;2023-04-15T06:46:43;10.15;;;9.15;;
31298;SDS011;17927;52.350;13.402;2023-04-15T06:49:09;11.63;;;9.23;;
31298;SDS011;17927;52.350;13.402;2023-04-15T06:51:35;10.23;;;9.23;;
31298;SDS011;17927;52.350;13.402;2023-04-15T06:54:01;15.48;;;9.30;;
31298;SDS011;17927;52.350;13.402;2023-04-15T06:56:29;9.85;;;8.85;;
31298;SDS011;17927;52.350;13.402;2023-04-15T06:58:55;11.75;;;9.50;;
31298;SDS011;17927;52.350;13.402;2023-04-15T07:01:21;10.75;;;9.55;;
31298;SDS011;17927;52.350;13.402;2023-04-15T07:03:46;12.98;;;9.18;;
31298;SDS011;17927;52.350;13.402;2023-04-15T07:06:11;10.52;;;8.90;;
31298;SDS011;17927;52.350;13.402;2023-04-15T07:08:37;10.82;;;9.73;;
31298;SDS011;17927;52.350;13.402;2023-04-15T07:11:03;13.48;;;9.20;;
31298;SDS011;17927;52.350;13.402;2023-04-15T07:13:29;10.48;;;8.57;;
31298;SDS011;17927;52.350;13.402;2023-04-15T07:15:56;10.18;;;9.07;;
31298;SDS011;17927;52.350;13.402;2023-04-15T07:18:21;10.75;;;9.73;;
31298;SDS011;17927;52.350;13.402;2023-04-15T07:20:46;10.93;;;9.57;;
31298;SDS011;17927;52.350;13.402;2023-04-15T07:23:12;11.60;;;9.80;;
31298;SDS011;17927;52.350;13.402;2023-04-15T07:25:37;10.57;;;8.90;;
31298;SDS011;17927;52.350;13.402;2023-04-15T07:28:02;10.25;;;9.15;;
31298;SDS011;17927;52.350;13.402;2023-04-15T07:30:27;10.65;;;9.02;;
31298;SDS011;17927;52.350;13.402;2023-04-15T07:32:53;9.88;;;8.88;;
31298;SDS011;17927;52.350;13.402;2023-04-15T07:35:18;10.35;;;9.32;;
31298;SDS011;17927;52.350;13.402;2023-04-15T07:37:45;10.63;;;9.52;;
31298;SDS011;17927;52.350;13.402;2023-04-15T07:40:10;13.18;;;9.27;;
31298;SDS011;17927;52.350;13.402;2023-04-15T07:42:36;10.27;;;9.20;;
31298;SDS011;17927;52.350;13.402;2023-04-15T07:45:01;11.05;;;9.35;;
31298;SDS011;17927;52.350;13.402;2023-04-15T07:47:26;10.43;;;9.05;;
31298;SDS011;17927;52.350;13.402;2023-04-15T07:49:52;11.70;;;9.68;;
31298;SDS011;17927;52.350;13.402;2023-04-15T07:52:17;10.80;;;9.55;;
31298;SDS011;17927;52.350;13.402;2023-04-15T07:54:42;10.57;;;9.52;;
31298;SDS011;17927;52.350;13.402;2023-04-15T07:57:07;11.88;;;8.98;;
31298;SDS011;17927;52.350;13.402;2023-04-15T07:59:33;11.13;;;9.32;;
31298;SDS011;17927;52.350;13.402;2023-04-15T08:01:58;11.45;;;8.90;;
31298;SDS011;17927;52.350;13.402;2023-04-15T08:04:23;11.20;;;8.98;;
31298;SDS011;17927;52.350;13.402;2023-04-15T08:06:49;10.98;;;9.75;;
31298;SDS011;17927;52.350;13.402;2023-04-15T08:09:14;11.38;;;10.18;;
31298;SDS011;17927;52.350;13.402;2023-04-15T08:11:40;13.20;;;9.25;;
31298;SDS011;17927;52.350;13.402;2023-04-15T08:14:05;10.40;;;9.40;;
31298;SDS011;17927;52.350;13.402;2023-04-15T08:16:31;11.40;;;10.20;;
31298;SDS011;17927;52.350;13.402;2023-04-15T08:18:57;11.57;;;10.35;;
31298;SDS011;17927;52.350;13.402;2023-04-15T08:21:22;11.98;;;9.68;;
31298;SDS011;17927;52.350;13.402;2023-04-15T08:23:49;11.63;;;9.65;;
31298;SDS011;17927;52.350;13.402;2023-04-15T08:26:16;13.55;;;9.90;;
31298;SDS011;17927;52.350;13.402;2023-04-15T08:28:43;11.32;;;10.23;;
31298;SDS011;17927;52.350;13.402;2023-04-15T08:31:09;11.73;;;10.13;;
31298;SDS011;17927;52.350;13.402;2023-04-15T08:33:35;12.45;;;10.48;;
31298;SDS011;17927;52.350;13.402;2023-04-15T08:36:01;11.50;;;10.27;;
31298;SDS011;17927;52.350;13.402;2023-04-15T08:38:26;10.55;;;9.00;;
31298;SDS011;17927;52.350;13.402;2023-04-15T08:40:51;14.23;;;10.52;;
31298;SDS011;17927;52.350;13.402;2023-04-15T08:43:20;11.27;;;10.15;;
31298;SDS011;17927;52.350;13.402;2023-04-15T08:45:51;10.75;;;9.55;;
31298;SDS011;17927;52.350;13.402;2023-04-15T08:48:17;13.25;;;11.40;;
31298;SDS011;17927;52.350;13.402;2023-04-15T08:50:43;12.27;;;10.45;;
31298;SDS011;17927;52.350;13.402;2023-04-15T08:53:10;14.25;;;10.55;;
31298;SDS011;17927;52.350;13.402;2023-04-15T08:55:35;14.45;;;10.88;;
31298;SDS011;17927;52.350;13.402;2023-04-15T08:58:07;14.50;;;10.93;;
31298;SDS011;17927;52.350;13.402;2023-04-15T09:00:33;15.15;;;11.38;;
31298;SDS011;17927;52.350;13.402;2023-04-15T09:02:58;12.48;;;11.18;;
31298;SDS011;17927;52.350;13.402;2023-04-15T09:05:24;12.45;;;10.70;;
31298;SDS011;17927;52.350;13.402;2023-04-15T09:07:49;12.65;;;11.32;;
31298;SDS011;17927;52.350;13.402;2023-04-15T09:10:15;12.52;;;11.00;;
31298;SDS011;17927;52.350;13.402;2023-04-15T09:12:41;12.38;;;11.07;;
31298;SDS011;17927;52.350;13.402;2023-04-15T09:15:06;11.73;;;10.60;;
31298;SDS011;17927;52.350;13.402;2023-04-15T09:17:36;11.90;;;10.70;;
31298;SDS011;17927;52.350;13.402;2023-04-15T09:20:11;11.82;;;10.20;;
31298;SDS011;17927;52.350;13.402;2023-04-15T09:22:38;11.95;;;10.70;;
31298;SDS011;17927;52.350;13.402;2023-04-15T09:27:47;12.88;;;10.73;;
31298;SDS011;17927;52.350;13.402;2023-04-15T09:30:13;11.57;;;10.43;;
31298;SDS011;17927;52.350;13.402;2023-04-15T09:32:46;10.68;;;9.68;;
31298;SDS011;17927;52.350;13.402;2023-04-15T09:35:13;14.00;;;10.73;;
31298;SDS011;17927;52.350;13.402;2023-04-15T09:37:38;10.40;;;9.40;;
31298;SDS011;17927;52.350;13.402;2023-04-15T09:40:04;11.15;;;10.07;;
31298;SDS011;17927;52.350;13.402;2023-04-15T09:42:29;10.77;;;9.77;;
31298;SDS011;17927;52.350;13.402;2023-04-15T09:44:56;11.25;;;10.25;;
31298;SDS011;17927;52.350;13.402;2023-04-15T09:47:32;10.43;;;9.43;;
31298;SDS011;17927;52.350;13.402;2023-04-15T09:49:58;10.90;;;9.90;;
31298;SDS011;17927;52.350;13.402;2023-04-15T09:52:24;11.32;;;10.23;;
31298;SDS011;17927;52.350;13.402;2023-04-15T09:54:52;11.88;;;10.52;;
31298;SDS011;17927;52.350;13.402;2023-04-15T09:57:20;12.13;;;10.82;;
31298;SDS011;17927;52.350;13.402;2023-04-15T09:59:46;11.77;;;10.57;;
31298;SDS011;17927;52.350;13.402;2023-04-15T10:02:11;10.80;;;9.85;;
31298;SDS011;17927;52.350;13.402;2023-04-15T10:04:39;11.55;;;10.32;;
31298;SDS011;17927;52.350;13.402;2023-04-15T10:07:05;11.25;;;10.05;;
31298;SDS011;17927;52.350;13.402;2023-04-15T10:09:34;11.30;;;10.10;;
31298;SDS011;17927;52.350;13.402;2023-04-15T10:12:00;10.93;;;9.88;;
31298;SDS011;17927;52.350;13.402;2023-04-15T10:14:28;10.25;;;9.25;;
31298;SDS011;17927;52.350;13.402;2023-04-15T10:16:58;11.00;;;9.07;;
31298;SDS011;17927;52.350;13.402;2023-04-15T10:19:25;9.98;;;9.13;;
31298;SDS011;17927;52.350;13.402;2023-04-15T10:21:53;11.68;;;9.35;;
31298;SDS011;17927;52.350;13.402;2023-04-15T10:24:19;12.65;;;8.98;;
31298;SDS011;17927;52.350;13.402;2023-04-15T10:26:46;10.05;;;9.02;;
31298;SDS011;17927;52.350;13.402;2023-04-15T10:29:11;9.88;;;8.98;;
31298;SDS011;17927;52.350;13.402;2023-04-15T10:31:38;9.32;;;8.52;;
31298;SDS011;17927;52.350;13.402;2023-04-15T10:34:05;9.40;;;8.52;;
31298;SDS011;17927;52.350;13.402;2023-04-15T10:36:31;9.55;;;8.57;;
31298;SDS011;17927;52.350;13.402;2023-04-15T10:38:57;10.23;;;8.73;;
31298;SDS011;17927;52.350;13.402;2023-04-15T10:41:25;9.15;;;8.35;;
31298;SDS011;17927;52.350;13.402;2023-04-15T10:44:02;10.00;;;8.43;;
31298;SDS011;17927;52.350;13.402;2023-04-15T10:49:06;9.02;;;8.15;;
31298;SDS011;17927;52.350;13.402;2023-04-15T10:51:33;8.93;;;8.20;;
31298;SDS011;17927;52.350;13.402;2023-04-15T10:54:05;8.55;;;7.78;;
31298;SDS011;17927;52.350;13.402;2023-04-15T10:56:34;9.10;;;8.30;;
31298;SDS011;17927;52.350;13.402;2023-04-15T10:58:59;8.98;;;8.07;;
31298;SDS011;17927;52.350;13.402;2023-04-15T11:10:03;9.48;;;8.55;;
31298;SDS011;17927;52.350;13.402;2023-04-15T11:12:59;9.43;;;8.43;;
31298;SDS011;17927;52.350;13.402;2023-04-15T11:17:56;8.90;;;8.10;;
31298;SDS011;17927;52.350;13.402;2023-04-15T11:20:52;8.93;;;8.13;;
31298;SDS011;17927;52.350;13.402;2023-04-15T11:23:29;9.23;;;8.32;;
31298;SDS011;17927;52.350;13.402;2023-04-15T11:25:56;8.60;;;7.80;;
31298;SDS011;17927;52.350;13.402;2023-04-15T11:28:24;8.63;;;7.78;;
31298;SDS011;17927;52.350;13.402;2023-04-15T11:30:51;8.95;;;8.13;;
31298;SDS011;17927;52.350;13.402;2023-04-15T11:33:18;8.88;;;8.10;;
31298;SDS011;17927;52.350;13.402;2023-04-15T11:35:43;10.35;;;9.35;;
31298;SDS011;17927;52.350;13.402;2023-04-15T11:38:09;8.18;;;7.38;;
31298;SDS011;17927;52.350;13.402;2023-04-15T11:40:39;9.68;;;8.60;;
31298;SDS011;17927;52.350;13.402;2023-04-15T11:43:06;8.50;;;7.80;;
31298;SDS011;17927;52.350;13.402;2023-04-15T11:45:31;9.57;;;8.77;;
31298;SDS011;17927;52.350;13.402;2023-04-15T11:48:06;8.52;;;7.70;;
31298;SDS011;17927;52.350;13.402;2023-04-15T11:50:33;8.68;;;7.68;;
31298;SDS011;17927;52.350;13.402;2023-04-15T11:53:00;8.52;;;7.72;;
31298;SDS011;17927;52.350;13.402;2023-04-15T11:55:27;9.23;;;7.32;;
31298;SDS011;17927;52.350;13.402;2023-04-15T11:58:09;8.32;;;7.53;;
31298;SDS011;17927;52.350;13.402;2023-04-15T12:00:38;8.18;;;7.47;;
31298;SDS011;17927;52.350;13.402;2023-04-15T12:03:10;6.82;;;6.32;;
31298;SDS011;17927;52.350;13.402;2023-04-15T12:08:48;7.07;;;6.55;;
31298;SDS011;17927;52.350;13.402;2023-04-15T12:13:55;7.90;;;7.20;;
31298;SDS011;17927;52.350;13.402;2023-04-15T12:16:22;6.88;;;6.28;;
31298;SDS011;17927;52.350;13.402;2023-04-15T12:18:51;6.97;;;6.38;;
31298;SDS011;17927;52.350;13.402;2023-04-15T12:23:55;6.15;;;5.72;;
31298;SDS011;17927;52.350;13.402;2023-04-15T12:26:28;6.88;;;6.28;;
31298;SDS011;17927;52.350;13.402;2023-04-15T12:29:02;6.38;;;5.97;;
31298;SDS011;17927;52.350;13.402;2023-04-15T12:31:29;7.13;;;6.45;;
31298;SDS011;17927;52.350;13.402;2023-04-15T12:33:55;6.93;;;6.38;;
31298;SDS011;17927;52.350;13.402;2023-04-15T12:36:24;7.70;;;6.95;;
31298;SDS011;17927;52.350;13.402;2023-04-15T12:38:50;6.97;;;6.38;;
31298;SDS011;17927;52.350;13.402;2023-04-15T12:41:15;6.90;;;6.30;;
31298;SDS011;17927;52.350;13.402;2023-04-15T12:43:40;6.30;;;5.90;;
31298;SDS011;17927;52.350;13.402;2023-04-15T12:46:06;7.40;;;6.28;;
31298;SDS011;17927;52.350;13.402;2023-04-15T12:48:32;7.28;;;6.20;;
31298;SDS011;17927;52.350;13.402;2023-04-15T12:50:57;6.60;;;6.10;;
31298;SDS011;17927;52.350;13.402;2023-04-15T12:53:23;6.60;;;6.10;;
31298;SDS011;17927;52.350;13.402;2023-04-15T12:55:48;6.80;;;6.18;;
31298;SDS011;17927;52.350;13.402;2023-04-15T12:58:13;7.78;;;7.00;;
31298;SDS011;17927;52.350;13.402;2023-04-15T13:00:38;7.60;;;7.00;;
31298;SDS011;17927;52.350;13.402;2023-04-15T13:03:04;11.18;;;9.43;;
31298;SDS011;17927;52.350;13.402;2023-04-15T13:05:29;9.68;;;6.80;;
31298;SDS011;17927;52.350;13.402;2023-04-15T13:07:54;7.20;;;6.50;;
31298;SDS011;17927;52.350;13.402;2023-04-15T13:10:20;6.45;;;5.97;;
31298;SDS011;17927;52.350;13.402;2023-04-15T13:12:47;6.95;;;6.13;;
31298;SDS011;17927;52.350;13.402;2023-04-15T13:15:16;7.20;;;6.50;;
31298;SDS011;17927;52.350;13.402;2023-04-15T13:17:44;6.47;;;5.90;;
31298;SDS011;17927;52.350;13.402;2023-04-15T13:20:09;6.35;;;5.85;;
31298;SDS011;17927;52.350;13.402;2023-04-15T13:22:35;6.95;;;6.32;;
31298;SDS011;17927;52.350;13.402;2023-04-15T13:25:00;6.40;;;5.97;;
31298;SDS011;17927;52.350;13.402;2023-04-15T13:27:25;7.07;;;6.40;;
31298;SDS011;17927;52.350;13.402;2023-04-15T13:29:53;6.53;;;6.03;;
31298;SDS011;17927;52.350;13.402;2023-04-15T13:32:18;6.35;;;5.90;;
31298;SDS011;17927;52.350;13.402;2023-04-15T13:34:43;6.53;;;6.05;;
31298;SDS011;17927;52.350;13.402;2023-04-15T13:37:09;6.55;;;6.07;;
31298;SDS011;17927;52.350;13.402;2023-04-15T13:39:34;6.43;;;5.82;;
31298;SDS011;17927;52.350;13.402;2023-04-15T13:41:59;6.28;;;5.88;;
31298;SDS011;17927;52.350;13.402;2023-04-15T13:44:25;6.10;;;5.65;;
31298;SDS011;17927;52.350;13.402;2023-04-15T13:46:50;7.30;;;6.60;;
31298;SDS011;17927;52.350;13.402;2023-04-15T13:49:16;6.65;;;6.25;;
31298;SDS011;17927;52.350;13.402;2023-04-15T13:51:41;7.18;;;5.57;;
31298;SDS011;17927;52.350;13.402;2023-04-15T13:54:06;6.55;;;6.05;;
31298;SDS011;17927;52.350;13.402;2023-04-15T13:56:32;6.45;;;5.95;;
31298;SDS011;17927;52.350;13.402;2023-04-15T13:58:57;6.25;;;5.75;;
31298;SDS011;17927;52.350;13.402;2023-04-15T14:01:25;5.88;;;5.45;;
31298;SDS011;17927;52.350;13.402;2023-04-15T14:03:51;6.63;;;6.13;;
31298;SDS011;17927;52.350;13.402;2023-04-15T14:06:16;6.55;;;6.05;;
31298;SDS011;17927;52.350;13.402;2023-04-15T14:08:41;6.63;;;6.10;;
31298;SDS011;17927;52.350;13.402;2023-04-15T14:11:06;6.03;;;5.53;;
31298;SDS011;17927;52.350;13.402;2023-04-15T14:13:32;6.32;;;5.75;;
31298;SDS011;17927;52.350;13.402;2023-04-15T14:15:57;6.75;;;6.25;;
31298;SDS011;17927;52.350;13.402;2023-04-15T14:18:22;6.78;;;6.30;;
31298;SDS011;17927;52.350;13.402;2023-04-15T14:20:48;6.95;;;6.35;;
31298;SDS011;17927;52.350;13.402;2023-04-15T14:23:13;7.95;;;6.10;;
31298;SDS011;17927;52.350;13.402;2023-04-15T14:25:38;6.30;;;5.80;;
31298;SDS011;17927;52.350;13.402;2023-04-15T14:28:03;6.13;;;5.53;;
31298;SDS011;17927;52.350;13.402;2023-04-15T14:30:29;6.38;;;5.90;;
31298;SDS011;17927;52.350;13.402;2023-04-15T14:32:54;7.07;;;6.43;;
31298;SDS011;17927;52.350;13.402;2023-04-15T14:35:20;5.68;;;5.28;;
31298;SDS011;17927;52.350;13.402;2023-04-15T14:37:45;6.82;;;6.22;;